createdAt,value
2022-08-27T00:00:19.167Z,1.00
2022-08-27T00:02:49.147Z,1.40
2022-08-27T00:05:19.311Z,0.95
2022-08-27T00:07:49.993Z,1.08
2022-08-27T00:10:21.864Z,1.13
2022-08-27T00:12:50.611Z,1.00
2022-08-27T00:15:21.611Z,0.75
2022-08-27T00:17:50.297Z,1.00
2022-08-27T00:20:22.228Z,0.70
2022-08-27T00:22:52.346Z,0.63
2022-08-27T00:25:22.121Z,0.77
2022-08-27T00:27:50.741Z,0.95
2022-08-27T00:30:21.523Z,1.10
2022-08-27T00:32:50.544Z,0.82
2022-08-27T00:35:19.595Z,0.82
2022-08-27T00:37:48.213Z,1.00
2022-08-27T00:40:21.402Z,1.02
2022-08-27T00:42:50.483Z,1.00
2022-08-27T00:45:21.439Z,0.93
2022-08-27T00:47:54.763Z,0.50
2022-08-27T00:50:32.043Z,0.60
2022-08-27T00:53:03.875Z,0.90
2022-08-27T00:55:38.156Z,1.00
2022-08-27T00:58:12.147Z,0.70
2022-08-27T01:00:41.629Z,0.70
2022-08-27T01:03:10.441Z,1.10
2022-08-27T01:05:40.171Z,0.95
2022-08-27T01:08:13.126Z,0.70
2022-08-27T01:10:44.255Z,0.70
2022-08-27T01:13:15.789Z,0.88
2022-08-27T01:15:44.771Z,0.80
2022-08-27T01:18:14.424Z,0.90
2022-08-27T01:20:47.915Z,0.90
2022-08-27T01:23:22.683Z,1.08
2022-08-27T01:25:53.253Z,0.80
2022-08-27T01:28:23.649Z,0.90
2022-08-27T01:30:59.778Z,1.02
2022-08-27T01:33:28.394Z,0.70
2022-08-27T01:35:57.013Z,0.90
2022-08-27T01:38:30.421Z,1.10
2022-08-27T01:41:02.040Z,0.60
2022-08-27T01:43:31.346Z,1.00
2022-08-27T01:46:00.711Z,1.00
2022-08-27T01:48:29.486Z,1.30
2022-08-27T01:50:58.122Z,0.82
2022-08-27T01:53:28.098Z,0.80
2022-08-27T01:55:57.577Z,1.10
2022-08-27T01:58:30.971Z,1.58
2022-08-27T02:01:02.935Z,0.90
2022-08-27T02:03:31.907Z,0.47
2022-08-27T02:06:01.681Z,1.00
2022-08-27T02:08:30.272Z,0.93
2022-08-27T02:10:58.976Z,1.17
2022-08-27T02:13:29.326Z,1.00
2022-08-27T02:15:57.933Z,1.00
2022-08-27T02:18:26.574Z,1.27
2022-08-27T02:20:55.213Z,1.20
2022-08-27T02:23:23.869Z,0.95
2022-08-27T02:25:52.488Z,0.90
2022-08-27T02:28:21.079Z,1.10
2022-08-27T02:30:51.050Z,1.33
2022-08-27T02:33:19.632Z,1.08
2022-08-27T02:35:48.228Z,1.50
2022-08-27T02:38:16.874Z,1.50
2022-08-27T02:40:45.611Z,1.70
2022-08-27T02:43:16.028Z,1.50
2022-08-27T02:45:55.172Z,1.13
2022-08-27T02:48:24.700Z,1.08
2022-08-27T02:50:53.483Z,1.20
2022-08-27T02:53:23.993Z,0.75
2022-08-27T02:55:53.099Z,1.05
2022-08-27T02:58:21.693Z,1.33
2022-08-27T03:00:50.355Z,1.13
2022-08-27T03:03:20.322Z,1.27
2022-08-27T03:05:49.189Z,1.60
2022-08-27T03:08:17.822Z,1.20
2022-08-27T03:10:46.881Z,1.67
2022-08-27T03:13:15.488Z,1.27
2022-08-27T03:15:44.156Z,1.07
2022-08-27T03:18:21.851Z,1.00
2022-08-27T03:20:55.761Z,1.30
2022-08-27T03:23:26.566Z,1.08
2022-08-27T03:25:57.087Z,1.10
2022-08-27T03:28:27.297Z,1.42
2022-08-27T03:31:00.574Z,1.55
2022-08-27T03:33:30.490Z,1.48
2022-08-27T03:36:00.787Z,1.98
2022-08-27T03:38:29.647Z,1.30
2022-08-27T03:40:58.292Z,1.88
2022-08-27T03:43:27.315Z,1.45
2022-08-27T03:46:01.863Z,1.42
2022-08-27T03:48:32.478Z,1.02
2022-08-27T03:51:08.013Z,1.00
2022-08-27T03:53:37.741Z,1.20
2022-08-27T03:56:07.381Z,1.30
2022-08-27T03:58:37.505Z,0.85
2022-08-27T04:01:08.630Z,1.20
2022-08-27T04:03:37.899Z,1.35
2022-08-27T04:06:08.553Z,1.13
2022-08-27T04:08:37.249Z,1.10
2022-08-27T04:11:07.633Z,1.20
2022-08-27T04:13:36.218Z,0.85
2022-08-27T04:16:07.650Z,0.98
2022-08-27T04:18:36.284Z,1.65
2022-08-27T04:21:12.836Z,1.17
2022-08-27T04:23:42.447Z,1.48
2022-08-27T04:26:12.818Z,1.20
2022-08-27T04:28:41.461Z,1.63
2022-08-27T04:31:16.296Z,1.20
2022-08-27T04:33:51.006Z,1.10
2022-08-27T04:36:22.162Z,1.50
2022-08-27T04:38:51.256Z,0.90
2022-08-27T04:41:25.093Z,1.42
2022-08-27T04:43:56.259Z,1.40
2022-08-27T04:46:27.027Z,1.57
2022-08-27T04:48:56.917Z,1.30
2022-08-27T04:51:27.493Z,1.52
2022-08-27T04:53:56.805Z,1.50
2022-08-27T04:56:29.990Z,1.40
2022-08-27T04:58:59.059Z,1.00
2022-08-27T05:01:29.807Z,1.02
2022-08-27T05:03:59.673Z,0.73
2022-08-27T05:06:30.052Z,1.00
2022-08-27T05:08:59.078Z,1.25
2022-08-27T05:11:32.435Z,1.30
2022-08-27T05:14:02.997Z,1.23
2022-08-27T05:16:32.488Z,1.42
2022-08-27T05:19:01.531Z,1.17
2022-08-27T05:21:35.804Z,1.42
2022-08-27T05:24:07.489Z,1.30
2022-08-27T05:26:38.015Z,1.27
2022-08-27T05:29:07.219Z,1.00
2022-08-27T05:31:36.786Z,1.10
2022-08-27T05:34:10.263Z,1.38
2022-08-27T05:36:48.635Z,1.30
2022-08-27T05:39:18.396Z,1.30
2022-08-27T05:41:47.145Z,1.08
2022-08-27T05:44:40.696Z,0.95
2022-08-27T05:47:06.253Z,1.15
2022-08-27T05:49:34.903Z,1.10
2022-08-27T05:52:08.913Z,1.10
2022-08-27T05:54:37.589Z,1.30
2022-08-27T05:57:06.772Z,1.02
2022-08-27T05:59:52.705Z,1.00
2022-08-27T06:02:21.891Z,1.10
2022-08-27T06:04:50.715Z,1.00
2022-08-27T06:07:21.057Z,1.02
2022-08-27T06:09:49.672Z,1.00
2022-08-27T06:12:18.335Z,1.23
2022-08-27T06:14:46.919Z,0.88
2022-08-27T06:17:15.544Z,0.90
2022-08-27T06:19:45.802Z,1.00
2022-08-27T06:22:14.779Z,0.95
2022-08-27T06:24:45.113Z,0.90
2022-08-27T06:27:16.239Z,0.90
2022-08-27T06:29:45.725Z,0.80
2022-08-27T06:32:15.107Z,0.98
2022-08-27T06:34:43.952Z,1.20
2022-08-27T06:37:12.633Z,1.25
2022-08-27T06:39:41.825Z,0.90
2022-08-27T06:42:14.008Z,1.50
2022-08-27T06:44:42.832Z,1.30
2022-08-27T06:47:12.181Z,1.00
2022-08-27T06:49:46.188Z,1.00
2022-08-27T06:52:15.327Z,1.10
2022-08-27T06:54:45.039Z,1.20
2022-08-27T06:57:15.037Z,1.30
2022-08-27T06:59:44.145Z,1.27
2022-08-27T07:02:12.904Z,1.10
2022-08-27T07:04:41.564Z,1.30
2022-08-27T07:07:13.741Z,1.05
2022-08-27T07:09:42.637Z,1.10
2022-08-27T07:12:11.303Z,1.60
2022-08-27T07:14:41.266Z,1.10
2022-08-27T07:17:11.193Z,1.10
2022-08-27T07:19:44.736Z,1.00
2022-08-27T07:22:13.976Z,1.27
2022-08-27T07:24:42.627Z,1.10
2022-08-27T07:27:11.656Z,1.13
2022-08-27T07:29:41.616Z,0.90
2022-08-27T07:32:10.510Z,1.20
2022-08-27T07:34:39.134Z,1.50
2022-08-27T07:37:07.965Z,1.27
2022-08-27T07:39:36.585Z,0.95
2022-08-27T07:42:31.329Z,0.95
2022-08-27T07:45:01.342Z,0.97
2022-08-27T07:47:30.109Z,1.60
2022-08-27T07:49:59.891Z,0.77
2022-08-27T07:52:28.736Z,1.00
2022-08-27T07:54:57.486Z,1.00
2022-08-27T07:57:26.203Z,0.90
2022-08-27T07:59:54.937Z,1.05
2022-08-27T08:02:24.981Z,1.45
2022-08-27T08:04:53.848Z,1.30
2022-08-27T08:07:22.463Z,1.55
2022-08-27T08:09:51.083Z,1.20
2022-08-27T08:12:26.288Z,1.20
2022-08-27T08:14:58.064Z,1.30
2022-08-27T08:17:28.160Z,1.30
2022-08-27T08:20:19.570Z,1.10
2022-08-27T08:22:47.993Z,1.53
2022-08-27T08:25:16.958Z,1.40
2022-08-27T08:27:45.910Z,1.30
2022-08-27T08:30:14.779Z,1.43
2022-08-27T08:32:44.744Z,1.45
2022-08-27T08:35:13.495Z,1.20
2022-08-27T08:37:44.765Z,1.30
2022-08-27T08:40:25.439Z,1.30
2022-08-27T08:42:56.657Z,1.30
2022-08-27T08:45:30.706Z,1.20
2022-08-27T08:48:07.603Z,1.45
2022-08-27T08:50:40.398Z,1.40
2022-08-27T08:53:15.483Z,1.30
2022-08-27T08:55:48.955Z,1.30
2022-08-27T08:58:26.524Z,1.37
2022-08-27T09:00:59.678Z,1.50
2022-08-27T09:03:31.351Z,1.35
2022-08-27T09:06:04.670Z,1.35
2022-08-27T09:08:40.653Z,1.63
2022-08-27T09:11:18.800Z,1.40
2022-08-27T09:13:51.676Z,1.30
2022-08-27T09:16:20.474Z,1.40
2022-08-27T09:18:51.123Z,1.23
2022-08-27T09:21:33.165Z,1.30
2022-08-27T09:24:09.002Z,1.52
2022-08-27T09:26:41.304Z,1.23
2022-08-27T09:29:20.103Z,1.40
2022-08-27T09:31:55.546Z,1.20
2022-08-27T09:34:27.314Z,1.40
2022-08-27T09:37:09.911Z,1.35
2022-08-27T09:39:49.092Z,1.25
2022-08-27T09:42:38.531Z,1.25
2022-08-27T09:45:11.886Z,1.30
2022-08-27T09:47:45.467Z,1.25
2022-08-27T09:50:18.497Z,1.35
2022-08-27T09:52:55.178Z,1.05
2022-08-27T09:55:37.359Z,1.00
2022-08-27T09:58:07.115Z,1.30
2022-08-27T10:00:39.345Z,1.35
2022-08-27T10:03:10.259Z,1.35
2022-08-27T10:05:44.447Z,1.13
2022-08-27T10:08:23.387Z,1.30
2022-08-27T10:11:00.552Z,1.50
2022-08-27T10:13:34.670Z,1.33
2022-08-27T10:16:27.375Z,1.47
2022-08-27T10:19:05.146Z,1.40
2022-08-27T10:21:44.582Z,1.63
2022-08-27T10:24:22.047Z,1.80
2022-08-27T10:27:02.105Z,1.58
2022-08-27T10:29:39.570Z,1.70
2022-08-27T10:32:19.731Z,1.50
2022-08-27T10:35:04.347Z,1.40
2022-08-27T10:37:44.444Z,1.35
2022-08-27T10:40:21.885Z,1.70
2022-08-27T10:42:57.758Z,1.50
2022-08-27T10:45:41.837Z,1.65
2022-08-27T10:48:25.216Z,1.40
2022-08-27T10:51:02.664Z,1.73
2022-08-27T10:53:44.196Z,1.65
2022-08-27T10:56:20.382Z,1.58
2022-08-27T10:59:03.608Z,1.80
2022-08-27T11:01:43.323Z,1.73
2022-08-27T11:04:19.465Z,1.83
2022-08-27T11:06:53.858Z,1.90
2022-08-27T11:09:31.274Z,1.70
2022-08-27T11:12:14.173Z,1.50
2022-08-27T11:14:49.329Z,1.60
2022-08-27T11:17:24.367Z,1.70
2022-08-27T11:20:00.146Z,1.40
2022-08-27T11:22:34.611Z,1.40
2022-08-27T11:25:12.151Z,1.80
2022-08-27T11:27:41.827Z,1.60
2022-08-27T11:30:20.130Z,1.42
2022-08-27T11:33:00.121Z,1.58
2022-08-27T11:35:40.251Z,1.30
2022-08-27T11:38:33.909Z,1.50
2022-08-27T11:41:45.180Z,1.60
2022-08-27T11:44:15.599Z,1.50
2022-08-27T11:46:47.153Z,1.23
2022-08-27T11:49:28.414Z,1.50
2022-08-27T11:52:03.497Z,1.40
2022-08-27T11:54:45.423Z,1.27
2022-08-27T11:57:28.349Z,1.30
2022-08-27T11:59:56.998Z,1.40
2022-08-27T12:02:27.767Z,1.30
2022-08-27T12:05:08.591Z,1.25
2022-08-27T12:07:40.649Z,1.50
2022-08-27T12:10:31.176Z,1.30
2022-08-27T12:13:18.197Z,1.30
2022-08-27T12:15:56.661Z,1.40
2022-08-27T12:18:57.223Z,1.10
2022-08-27T12:21:36.446Z,0.98
2022-08-27T12:24:27.127Z,1.10
2022-08-27T12:26:57.877Z,1.30
2022-08-27T12:29:35.240Z,1.20
2022-08-27T12:32:21.328Z,1.30
2022-08-27T12:34:59.504Z,1.45
2022-08-27T12:37:32.838Z,1.10
2022-08-27T12:40:09.178Z,1.13
2022-08-27T12:42:37.906Z,1.37
2022-08-27T12:45:08.914Z,1.30
2022-08-27T12:47:42.568Z,1.20
2022-08-27T12:50:24.325Z,1.40
2022-08-27T12:53:12.665Z,1.25
2022-08-27T12:55:57.056Z,1.35
2022-08-27T12:58:37.649Z,1.30
2022-08-27T13:01:25.677Z,1.40
2022-08-27T13:03:57.081Z,1.58
2022-08-27T13:06:30.398Z,1.08
2022-08-27T13:09:01.349Z,1.08
2022-08-27T13:11:31.658Z,1.10
2022-08-27T13:14:09.584Z,1.20
2022-08-27T13:16:45.794Z,1.27
2022-08-27T13:19:21.288Z,1.10
2022-08-27T13:21:52.130Z,1.20
2022-08-27T13:24:27.888Z,1.30
2022-08-27T13:26:57.684Z,1.20
2022-08-27T13:29:28.555Z,1.30
2022-08-27T13:31:59.858Z,1.40
2022-08-27T13:34:33.083Z,1.40
2022-08-27T13:37:04.234Z,1.38
2022-08-27T13:39:34.239Z,1.60
2022-08-27T13:42:05.585Z,1.60
2022-08-27T13:44:36.804Z,1.58
2022-08-27T13:47:08.936Z,1.40
2022-08-27T13:49:40.539Z,1.30
2022-08-27T13:52:19.670Z,1.30
2022-08-27T13:54:50.637Z,1.63
2022-08-27T13:57:30.373Z,1.30
2022-08-27T14:00:10.601Z,1.30
2022-08-27T14:02:40.738Z,1.20
2022-08-27T14:05:31.991Z,1.30
2022-08-27T14:08:03.240Z,1.20
2022-08-27T14:10:37.781Z,1.40
2022-08-27T14:13:09.179Z,1.25
2022-08-27T14:15:39.853Z,1.63
2022-08-27T14:18:32.110Z,1.20
2022-08-27T14:21:10.606Z,1.13
2022-08-27T14:23:39.178Z,1.20
2022-08-27T14:26:09.802Z,1.60
2022-08-27T14:28:38.435Z,1.27
2022-08-27T14:31:07.202Z,1.10
2022-08-27T14:33:37.199Z,1.02
2022-08-27T14:36:06.445Z,1.20
2022-08-27T14:38:37.576Z,1.20
2022-08-27T14:41:10.432Z,1.45
2022-08-27T14:43:39.150Z,1.13
2022-08-27T14:46:13.796Z,1.60
2022-08-27T14:48:51.451Z,1.30
2022-08-27T14:51:25.595Z,1.30
2022-08-27T14:53:55.048Z,1.20
2022-08-27T14:56:24.723Z,0.88
2022-08-27T14:58:54.348Z,1.00
2022-08-27T15:01:25.229Z,1.00
2022-08-27T15:03:56.457Z,0.98
2022-08-27T15:06:25.356Z,0.75
2022-08-27T15:08:55.139Z,1.00
2022-08-27T15:11:26.412Z,0.85
2022-08-27T15:13:56.139Z,1.00
2022-08-27T15:16:34.520Z,1.10
2022-08-27T15:19:07.147Z,1.10
2022-08-27T15:21:37.541Z,1.00
2022-08-27T15:24:14.299Z,1.10
2022-08-27T15:26:42.973Z,0.98
2022-08-27T15:29:11.833Z,0.90
2022-08-27T15:31:41.230Z,0.93
2022-08-27T15:34:11.398Z,0.93
2022-08-27T15:36:40.741Z,1.10
2022-08-27T15:39:10.199Z,1.08
2022-08-27T15:42:05.252Z,0.90
2022-08-27T15:44:29.282Z,1.20
2022-08-27T15:46:57.910Z,1.30
2022-08-27T15:49:27.909Z,1.30
2022-08-27T15:51:57.206Z,1.27
2022-08-27T15:54:28.499Z,1.10
2022-08-27T15:56:57.258Z,1.00
2022-08-27T15:59:25.831Z,1.25
2022-08-27T16:01:54.883Z,0.90
2022-08-27T16:04:23.992Z,1.00
2022-08-27T16:06:54.184Z,1.17
2022-08-27T16:09:23.421Z,1.10
2022-08-27T16:11:52.042Z,1.00
2022-08-27T16:14:20.669Z,1.20
2022-08-27T16:16:50.327Z,1.10
2022-08-27T16:19:20.684Z,1.10
2022-08-27T16:21:51.170Z,0.95
2022-08-27T16:24:22.726Z,0.95
2022-08-27T16:26:51.563Z,0.90
2022-08-27T16:29:20.216Z,1.23
2022-08-27T16:31:49.882Z,1.07
2022-08-27T16:34:22.826Z,1.00
2022-08-27T16:36:51.430Z,1.17
2022-08-27T16:39:21.551Z,1.00
2022-08-27T16:41:50.400Z,1.08
2022-08-27T16:44:19.201Z,1.05
2022-08-27T16:46:47.871Z,1.00
2022-08-27T16:49:34.035Z,1.08
2022-08-27T16:52:02.910Z,0.95
2022-08-27T16:54:32.863Z,1.20
2022-08-27T16:57:01.503Z,1.10
2022-08-27T16:59:30.184Z,1.00
2022-08-27T17:01:58.908Z,1.10
2022-08-27T17:04:32.286Z,1.30
2022-08-27T17:07:07.042Z,0.90
2022-08-27T17:09:38.649Z,0.87
2022-08-27T17:12:07.926Z,1.10
2022-08-27T17:14:38.005Z,0.77
2022-08-27T17:17:09.500Z,0.80
2022-08-27T17:19:38.148Z,1.00
2022-08-27T17:22:09.518Z,1.10
2022-08-27T17:24:39.721Z,0.98
2022-08-27T17:27:08.383Z,0.80
2022-08-27T17:29:37.807Z,1.10
2022-08-27T17:32:09.989Z,0.70
2022-08-27T17:34:38.671Z,0.80
2022-08-27T17:37:07.665Z,0.90
2022-08-27T17:39:36.289Z,0.65
2022-08-27T17:42:08.431Z,0.80
2022-08-27T17:44:39.102Z,0.77
2022-08-27T17:47:09.209Z,0.90
2022-08-27T17:49:38.351Z,0.90
2022-08-27T17:52:10.751Z,1.00
2022-08-27T17:54:43.376Z,0.88
2022-08-27T17:57:17.843Z,1.10
2022-08-27T17:59:46.821Z,0.80
2022-08-27T18:02:19.983Z,1.10
2022-08-27T18:04:49.291Z,0.93
2022-08-27T18:07:19.262Z,0.80
2022-08-27T18:09:48.452Z,1.00
2022-08-27T18:12:21.980Z,0.85
2022-08-27T18:14:54.876Z,0.70
2022-08-27T18:17:23.515Z,0.90
2022-08-27T18:19:52.154Z,1.05
2022-08-27T18:22:21.591Z,0.75
2022-08-27T18:24:50.192Z,0.75
2022-08-27T18:27:21.567Z,0.80
2022-08-27T18:29:50.229Z,1.00
2022-08-27T18:32:25.505Z,0.70
2022-08-27T18:34:54.281Z,0.70
2022-08-27T18:37:23.718Z,0.90
2022-08-27T18:39:52.318Z,1.15
2022-08-27T18:42:22.354Z,0.60
2022-08-27T18:44:50.990Z,0.93
2022-08-27T18:47:19.623Z,0.60
2022-08-27T18:49:48.328Z,0.90
2022-08-27T18:52:17.535Z,0.90
2022-08-27T18:54:46.164Z,0.90
2022-08-27T18:57:14.767Z,1.00
2022-08-27T18:59:44.854Z,1.20
2022-08-27T19:02:21.036Z,0.90
2022-08-27T19:04:50.162Z,0.73
2022-08-27T19:07:18.887Z,0.98
2022-08-27T19:09:47.653Z,0.80
2022-08-27T19:12:17.538Z,0.93
2022-08-27T19:14:48.447Z,0.77
2022-08-27T19:17:26.220Z,1.00
2022-08-27T19:19:55.985Z,0.93
2022-08-27T19:22:25.129Z,0.93
2022-08-27T19:24:54.767Z,1.57
2022-08-27T19:27:26.205Z,0.90
2022-08-27T19:29:56.331Z,1.10
2022-08-27T19:32:25.395Z,0.90
2022-08-27T19:34:54.899Z,1.20
2022-08-27T19:37:26.658Z,0.90
2022-08-27T19:39:55.273Z,0.85
2022-08-27T19:42:24.247Z,0.88
2022-08-27T19:44:52.884Z,1.00
2022-08-27T19:47:25.946Z,1.20
2022-08-27T19:49:56.298Z,0.65
2022-08-27T19:52:25.355Z,0.77
2022-08-27T19:55:12.734Z,0.88
2022-08-27T19:57:42.982Z,0.93
2022-08-27T20:00:14.243Z,0.90
2022-08-27T20:02:44.271Z,0.80
2022-08-27T20:05:20.238Z,0.70
2022-08-27T20:07:49.435Z,1.15
2022-08-27T20:10:18.816Z,0.47
2022-08-27T20:12:47.487Z,0.82
2022-08-27T20:15:16.198Z,1.20
2022-08-27T20:17:46.177Z,1.10
2022-08-27T20:20:21.046Z,0.98
2022-08-27T20:22:49.708Z,0.70
2022-08-27T20:25:19.218Z,1.10
2022-08-27T20:27:48.134Z,1.35
2022-08-27T20:30:18.175Z,1.77
2022-08-27T20:32:48.267Z,1.38
2022-08-27T20:35:18.624Z,1.27
2022-08-27T20:37:47.407Z,1.10
2022-08-27T20:40:19.771Z,1.10
2022-08-27T20:42:48.419Z,1.20
2022-08-27T20:45:18.571Z,1.40
2022-08-27T20:47:50.791Z,1.15
2022-08-27T20:50:21.893Z,0.93
2022-08-27T20:52:52.116Z,1.02
2022-08-27T20:55:21.910Z,0.90
2022-08-27T20:58:08.449Z,1.17
2022-08-27T21:00:40.583Z,1.20
2022-08-27T21:03:11.524Z,1.20
2022-08-27T21:05:43.649Z,0.60
2022-08-27T21:08:12.552Z,0.80
2022-08-27T21:10:47.056Z,0.53
2022-08-27T21:13:16.666Z,1.05
2022-08-27T21:15:45.371Z,0.90
2022-08-27T21:18:15.308Z,0.93
2022-08-27T21:20:44.381Z,1.02
2022-08-27T21:23:13.064Z,0.95
2022-08-27T21:25:42.260Z,0.73
2022-08-27T21:28:10.974Z,0.95
2022-08-27T21:30:39.707Z,0.98
2022-08-27T21:33:08.307Z,1.10
2022-08-27T21:35:38.613Z,0.80
2022-08-27T21:38:07.197Z,1.07
2022-08-27T21:40:35.920Z,1.02
2022-08-27T21:43:04.788Z,1.03
2022-08-27T21:45:33.415Z,0.90
2022-08-27T21:48:02.044Z,0.88
2022-08-27T21:50:30.993Z,1.13
2022-08-27T21:53:00.951Z,0.80
2022-08-27T21:55:29.586Z,0.90
2022-08-27T21:57:58.847Z,0.82
2022-08-27T22:00:43.846Z,0.95
2022-08-27T22:03:14.251Z,1.00
2022-08-27T22:05:44.510Z,0.82
2022-08-27T22:08:16.416Z,0.98
2022-08-27T22:10:47.885Z,0.70
2022-08-27T22:13:16.954Z,1.08
2022-08-27T22:15:45.563Z,1.00
2022-08-27T22:18:14.312Z,1.13
2022-08-27T22:20:43.776Z,1.13
2022-08-27T22:23:14.854Z,0.90
2022-08-27T22:25:44.769Z,0.90
2022-08-27T22:28:14.739Z,0.63
2022-08-27T22:30:44.872Z,1.02
2022-08-27T22:33:14.403Z,0.85
2022-08-27T22:35:43.311Z,0.90
2022-08-27T22:38:12.213Z,0.98
2022-08-27T22:40:42.753Z,0.80
2022-08-27T22:43:11.451Z,0.93
2022-08-27T22:45:40.090Z,0.90
2022-08-27T22:48:09.409Z,0.85
2022-08-27T22:50:38.066Z,0.80
2022-08-27T22:53:06.730Z,0.90
2022-08-27T22:55:35.830Z,0.70
2022-08-27T22:58:05.990Z,0.93
2022-08-27T23:00:37.615Z,0.60
2022-08-27T23:03:07.369Z,0.63
2022-08-27T23:05:41.372Z,0.80
2022-08-27T23:08:13.332Z,1.17
2022-08-27T23:10:43.343Z,1.17
2022-08-27T23:13:13.717Z,1.20
2022-08-27T23:15:43.222Z,0.90
2022-08-27T23:18:12.258Z,1.00
2022-08-27T23:20:41.645Z,0.90
2022-08-27T23:23:10.267Z,0.88
2022-08-27T23:25:57.186Z,0.95
2022-08-27T23:28:27.186Z,1.30
2022-08-27T23:30:56.345Z,1.08
2022-08-27T23:33:25.070Z,1.13
2022-08-27T23:35:53.733Z,1.08
2022-08-27T23:38:23.645Z,1.23
2022-08-27T23:40:53.442Z,1.40
2022-08-27T23:43:22.885Z,1.17
2022-08-27T23:45:53.126Z,1.30
2022-08-27T23:48:21.727Z,1.50
2022-08-27T23:50:50.613Z,1.20
2022-08-27T23:53:19.543Z,1.50
2022-08-27T23:55:48.381Z,1.35
2022-08-27T23:58:17.061Z,1.25
